Etusivu
METAR-TAF:

METAR-TAF

Lentoasemat :

Curaçao, Alankomaiden Antillit

Leveyspiiri: 12-12N, Pituuspiiri: 068-58W, korkeus merenpinnasta: 9 m

Tämänhetkinen sää

Tämä raportti tehtiin 44 minuuttia sitten, kello 20.00 UTC
Tuuli 14 kn idästä
Lämpötila 31°C
Kosteus 66%
Ilmanpaine 1012 hPa
Näkyvyys 10 km tai enemmän
Hajanaisia pilviä 2000 ft:n korkeudessa

METAR: TNCC 292000Z 09014KT 9999 SCT020 31/24 Q1012 NOSIG

Aika: 16:44 (20:44 UTC)

Sääennuste

Tämä raportti tehtiin 4 tuntia ja 44 minuuttia sitten, kello 16.00 UTC
Ennuste voimassa 29. päivästä klo 18 UTC - 30. päivään klo 18 UTC
Tuuli 15 kn idästä
Näkyvyys 10 km tai enemmän
Hajanaisia pilviä 2000 ft:n korkeudessa
Todennäköisyys 40% :
Ajoittain
30. päivästä klo 04 UTC - 30. päivään klo 16 UTC
Näkyvyys: 7000 m
Hajonneita pilviä 1500 ft:n korkeudessa
vesikuuroja

TAF: TNCC 291600Z 2918/3018 09015KT 9999 SCT020 PROB40 TEMPO 3004/3016 7000 SHRA BKN015

Säähavainnot ja -ennusteet yli 4000 lentoasemalta (METAR- ja TAF-raportit).

Käytössä olevat sääasemat on merkitty karttaan keltaisilla ja punaisilla pisteillä.

Aseta hiiri pisteen päälle nähdäksesi sääaseman nimen.

Klikkaa sitten nähdäksesi säähavainnot ja -ennusteet.

Kartan vaihtaminen: klikkaa mustalla rastilla varustettuja vihreitä pisteitä, niin voit zoomata sisään; viivalla varustettua vihreää pistettä, niin voit zoomata ulos tai vihreitä nuolia, niin pääset viereisille kartoille.


METAR-TAF: